createdAt,value
2017-09-08T00:01:57.570Z,65.14
2017-09-08T00:04:24.005Z,65.71
2017-09-08T00:06:50.440Z,65.60
2017-09-08T00:09:16.878Z,65.43
2017-09-08T00:11:43.318Z,64.86
2017-09-08T00:14:10.566Z,64.67
2017-09-08T00:16:37.001Z,65.37
2017-09-08T00:19:03.435Z,65.42
2017-09-08T00:21:29.869Z,65.32
2017-09-08T00:23:56.303Z,65.65
2017-09-08T00:26:22.718Z,65.83
2017-09-08T00:28:49.161Z,66.39
2017-09-08T00:31:16.424Z,66.73
2017-09-08T00:33:42.866Z,67.49
2017-09-08T00:36:09.400Z,67.55
2017-09-08T00:38:35.836Z,66.95
2017-09-08T00:41:02.269Z,66.64
2017-09-08T00:43:28.703Z,66.63
2017-09-08T00:45:55.139Z,66.77
2017-09-08T00:48:22.290Z,67.29
2017-09-08T00:50:48.724Z,67.55
2017-09-08T00:53:15.162Z,68.02
2017-09-08T00:55:41.595Z,68.03
2017-09-08T00:58:08.029Z,68.15
2017-09-08T01:00:34.467Z,67.82
2017-09-08T01:03:00.900Z,67.16
2017-09-08T01:05:28.155Z,66.91
2017-09-08T01:07:54.588Z,66.92
2017-09-08T01:10:21.128Z,66.81
2017-09-08T01:12:47.561Z,66.28
2017-09-08T01:15:13.995Z,66.19
2017-09-08T01:17:40.413Z,66.82
2017-09-08T01:20:06.854Z,67.23
2017-09-08T01:22:34.120Z,66.99
2017-09-08T01:25:00.555Z,66.54
2017-09-08T01:27:26.989Z,66.32
2017-09-08T01:29:53.424Z,66.21
2017-09-08T01:32:19.860Z,66.50
2017-09-08T01:34:46.294Z,67.21
2017-09-08T01:37:12.833Z,67.28
2017-09-08T01:39:39.870Z,67.32
2017-09-08T01:42:06.312Z,67.71
2017-09-08T01:44:32.750Z,68.16
2017-09-08T01:46:59.181Z,67.65
2017-09-08T01:49:25.622Z,67.17
2017-09-08T01:51:52.056Z,67.05
2017-09-08T01:54:18.487Z,67.74
2017-09-08T01:56:45.685Z,67.94
2017-09-08T01:59:12.179Z,68.12
2017-09-08T02:01:38.614Z,68.56
2017-09-08T02:04:05.098Z,68.56
2017-09-08T02:06:31.564Z,68.32
2017-09-08T02:11:24.251Z,67.98
2017-09-08T02:13:51.391Z,67.83
2017-09-08T02:16:17.833Z,67.39
2017-09-08T02:18:44.251Z,66.99
2017-09-08T02:21:10.707Z,66.69
2017-09-08T02:23:37.142Z,66.83
2017-09-08T02:26:03.577Z,67.12
2017-09-08T02:28:30.012Z,67.46
2017-09-08T02:30:57.163Z,67.63
2017-09-08T02:33:23.599Z,67.82
2017-09-08T02:35:50.033Z,67.83
2017-09-08T02:38:16.467Z,68.16
2017-09-08T02:40:42.907Z,68.50
2017-09-08T02:43:09.340Z,68.83
2017-09-08T02:45:35.776Z,69.03
2017-09-08T02:48:02.922Z,68.84
2017-09-08T02:50:29.360Z,68.19
2017-09-08T02:52:55.791Z,68.26
2017-09-08T02:55:22.228Z,68.40
2017-09-08T02:57:48.664Z,69.23
2017-09-08T03:00:15.099Z,69.65
2017-09-08T03:02:41.534Z,69.49
2017-09-08T03:05:08.788Z,69.02
2017-09-08T03:07:35.223Z,68.49
2017-09-08T03:10:01.659Z,68.98
2017-09-08T03:12:28.092Z,69.43
2017-09-08T03:14:54.528Z,69.93
2017-09-08T03:17:20.962Z,69.29
2017-09-08T03:19:47.397Z,69.08
2017-09-08T03:22:14.549Z,69.20
2017-09-08T03:24:41.086Z,69.51
2017-09-08T03:27:07.521Z,69.26
2017-09-08T03:29:33.958Z,68.30
2017-09-08T03:32:00.389Z,68.26
2017-09-08T03:34:26.825Z,68.10
2017-09-08T03:36:53.259Z,68.12
2017-09-08T03:39:20.413Z,68.90
2017-09-08T03:41:46.847Z,69.24
2017-09-08T03:44:13.282Z,69.52
2017-09-08T03:46:39.668Z,70.02
2017-09-08T03:49:06.154Z,70.57
2017-09-08T03:51:32.587Z,70.65
2017-09-08T03:53:59.111Z,70.50
2017-09-08T03:56:26.229Z,70.37
2017-09-08T03:58:52.693Z,70.06
2017-09-08T04:01:19.137Z,69.54
2017-09-08T04:03:45.581Z,69.39
2017-09-08T04:06:12.014Z,69.61
2017-09-08T04:08:38.449Z,69.67
2017-09-08T04:11:04.885Z,69.95
2017-09-08T04:13:32.135Z,70.36
2017-09-08T04:15:58.576Z,70.55
2017-09-08T04:18:25.111Z,70.16
2017-09-08T04:20:51.545Z,69.73
2017-09-08T04:23:17.980Z,69.76
2017-09-08T04:25:44.416Z,69.47
2017-09-08T04:28:10.855Z,69.12
2017-09-08T04:30:38.101Z,68.25
2017-09-08T04:33:04.540Z,67.50
2017-09-08T04:35:31.076Z,67.12
2017-09-08T04:37:57.512Z,66.64
2017-09-08T04:40:23.948Z,66.38
2017-09-08T04:42:50.383Z,66.12
2017-09-08T04:45:16.816Z,65.91
2017-09-08T04:47:43.970Z,65.94
2017-09-08T04:50:10.406Z,65.62
2017-09-08T04:52:36.838Z,65.46
2017-09-08T04:55:03.275Z,65.25
2017-09-08T04:57:29.669Z,65.36
2017-09-08T04:59:56.144Z,65.18
2017-09-08T05:02:22.578Z,65.06
2017-09-08T05:04:49.834Z,64.74
2017-09-08T05:07:16.267Z,65.10
2017-09-08T05:09:42.700Z,65.22
2017-09-08T05:12:09.237Z,64.89
2017-09-08T05:14:35.674Z,65.25
2017-09-08T05:17:02.210Z,66.34
2017-09-08T05:19:28.644Z,67.03
2017-09-08T05:21:55.791Z,66.93
2017-09-08T05:24:22.233Z,67.38
2017-09-08T05:26:48.663Z,67.77
2017-09-08T05:29:15.103Z,68.18
2017-09-08T05:31:41.537Z,67.95
2017-09-08T05:34:07.971Z,67.71
2017-09-08T05:36:34.406Z,67.06
2017-09-08T05:39:01.353Z,66.86
2017-09-08T05:41:27.790Z,66.38
2017-09-08T05:43:54.220Z,65.90
2017-09-08T05:46:20.841Z,65.10
2017-09-08T05:48:47.282Z,64.29
2017-09-08T05:51:13.964Z,63.59
2017-09-08T05:53:40.698Z,63.64
2017-09-08T05:56:07.409Z,63.74
2017-09-08T05:58:33.856Z,63.63
2017-09-08T06:01:00.496Z,63.54
2017-09-08T06:05:58.076Z,63.17
2017-09-08T06:08:25.372Z,63.25
2017-09-08T06:10:51.865Z,63.56
2017-09-08T06:13:18.404Z,63.06
2017-09-08T06:15:46.172Z,62.59
2017-09-08T06:18:12.813Z,62.30
2017-09-08T06:20:39.924Z,61.55
2017-09-08T06:23:06.603Z,61.04
2017-09-08T06:25:33.445Z,60.39
2017-09-08T06:27:59.837Z,59.58
2017-09-08T06:30:26.316Z,58.59
2017-09-08T06:32:53.160Z,57.82
2017-09-08T06:35:19.646Z,57.75
2017-09-08T06:37:46.134Z,57.50
2017-09-08T06:40:12.871Z,56.93
2017-09-08T06:42:39.412Z,56.56
2017-09-08T06:45:05.949Z,55.94
2017-09-08T06:47:32.388Z,55.11
2017-09-08T06:49:59.330Z,54.72
2017-09-08T06:52:26.687Z,54.18
2017-09-08T06:54:53.224Z,53.31
2017-09-08T06:57:20.069Z,53.38
2017-09-08T06:59:46.606Z,52.06
2017-09-08T07:02:13.112Z,52.31
2017-09-08T07:04:39.681Z,51.13
2017-09-08T07:07:06.116Z,50.97
2017-09-08T07:09:32.654Z,51.66
2017-09-08T07:11:59.602Z,51.52
2017-09-08T07:14:26.449Z,51.40
2017-09-08T07:16:52.982Z,51.08
2017-09-08T07:19:19.669Z,51.22
2017-09-08T07:21:46.161Z,49.87
2017-09-08T07:24:12.699Z,50.38
2017-09-08T07:26:39.849Z,50.11
2017-09-08T07:29:07.000Z,49.34
2017-09-08T07:31:33.538Z,49.92
2017-09-08T07:34:00.382Z,49.14
2017-09-08T07:36:26.918Z,49.36
2017-09-08T07:38:53.557Z,48.62
2017-09-08T07:41:20.301Z,48.52
2017-09-08T07:43:46.837Z,48.99
2017-09-08T07:46:13.358Z,48.43
2017-09-08T07:48:40.322Z,48.25
2017-09-08T07:51:07.140Z,47.49
2017-09-08T07:53:33.586Z,47.67
2017-09-08T07:56:00.341Z,47.38
2017-09-08T07:58:26.870Z,47.21
2017-09-08T08:00:53.316Z,47.12
2017-09-08T08:03:20.162Z,47.35
2017-09-08T08:05:46.700Z,47.20
2017-09-08T08:08:13.213Z,46.46
2017-09-08T08:10:40.181Z,46.47
2017-09-08T08:13:06.718Z,46.58
2017-09-08T08:15:33.257Z,46.46
2017-09-08T08:18:00.305Z,45.96
2017-09-08T08:20:26.843Z,45.29
2017-09-08T08:22:53.382Z,45.46
2017-09-08T08:25:20.123Z,44.99
2017-09-08T08:27:46.555Z,44.67
2017-09-08T08:30:13.093Z,44.64
2017-09-08T08:32:40.744Z,44.03
2017-09-08T08:35:07.165Z,44.12
2017-09-08T08:37:33.605Z,44.43
2017-09-08T08:40:00.165Z,44.28
2017-09-08T08:42:26.694Z,44.07
2017-09-08T08:44:53.547Z,43.84
2017-09-08T08:47:20.277Z,43.06
2017-09-08T08:49:46.825Z,43.26
2017-09-08T08:52:13.367Z,43.13
2017-09-08T08:54:40.105Z,43.23
2017-09-08T08:57:06.597Z,42.50
2017-09-08T08:59:33.163Z,42.27
2017-09-08T09:02:00.026Z,42.38
2017-09-08T09:04:26.563Z,41.99
2017-09-08T09:06:53.148Z,42.23
2017-09-08T09:09:20.239Z,42.06
2017-09-08T09:11:46.787Z,41.53
2017-09-08T09:14:13.326Z,41.77
2017-09-08T09:16:40.069Z,41.46
2017-09-08T09:19:06.860Z,41.66
2017-09-08T09:21:33.327Z,41.10
2017-09-08T09:23:59.884Z,41.18
2017-09-08T09:26:26.318Z,41.22
2017-09-08T09:28:52.858Z,41.17
2017-09-08T09:31:19.703Z,40.80
2017-09-08T09:33:46.239Z,40.59
2017-09-08T09:36:12.735Z,41.00
2017-09-08T09:38:39.621Z,40.10
2017-09-08T09:41:06.048Z,39.48
2017-09-08T09:43:32.596Z,40.06
2017-09-08T09:45:59.436Z,39.97
2017-09-08T09:48:25.871Z,39.28
2017-09-08T09:50:52.594Z,39.17
2017-09-08T09:53:19.567Z,39.50
2017-09-08T09:55:46.180Z,39.57
2017-09-08T09:58:12.636Z,39.86
2017-09-08T10:00:39.275Z,40.48
2017-09-08T10:03:05.760Z,40.21
2017-09-08T10:05:32.454Z,39.90
2017-09-08T10:07:59.295Z,39.69
2017-09-08T10:10:25.834Z,39.92
2017-09-08T10:12:52.370Z,38.34
2017-09-08T10:15:19.521Z,38.56
2017-09-08T10:17:45.915Z,38.87
2017-09-08T10:20:12.443Z,38.89
2017-09-08T10:22:39.748Z,39.30
2017-09-08T10:25:06.184Z,39.21
2017-09-08T10:27:32.720Z,38.41
2017-09-08T10:29:59.565Z,38.75
2017-09-08T10:32:25.998Z,38.37
2017-09-08T10:34:52.497Z,38.52
2017-09-08T10:37:19.076Z,39.01
2017-09-08T10:39:45.611Z,38.45
2017-09-08T10:42:12.056Z,38.33
2017-09-08T10:44:38.788Z,37.95
2017-09-08T10:47:05.530Z,38.65
2017-09-08T10:49:32.170Z,37.93
2017-09-08T10:51:59.116Z,37.72
2017-09-08T10:54:25.609Z,37.19
2017-09-08T10:56:52.090Z,36.43
2017-09-08T10:59:18.936Z,37.51
2017-09-08T11:01:45.368Z,36.51
2017-09-08T11:04:11.757Z,35.55
2017-09-08T11:06:39.262Z,35.92
2017-09-08T11:09:05.697Z,34.94
2017-09-08T11:11:32.133Z,35.53
2017-09-08T11:13:58.976Z,35.53
2017-09-08T11:16:25.411Z,34.25
2017-09-08T11:18:53.075Z,33.82
2017-09-08T11:21:19.711Z,32.48
2017-09-08T11:23:46.149Z,31.98
2017-09-08T11:26:12.670Z,31.97
2017-09-08T11:28:39.313Z,31.18
2017-09-08T11:31:05.863Z,30.61
2017-09-08T11:33:32.301Z,31.14
2017-09-08T11:35:59.039Z,31.61
2017-09-08T11:38:26.757Z,31.57
2017-09-08T11:40:53.549Z,30.75
2017-09-08T11:43:20.290Z,31.35
2017-09-08T11:45:47.144Z,32.05
2017-09-08T11:48:13.572Z,31.11
2017-09-08T11:50:40.352Z,31.46
2017-09-08T11:53:06.855Z,29.69
2017-09-08T11:55:33.489Z,28.95
2017-09-08T11:58:00.204Z,28.88
2017-09-08T12:00:26.752Z,27.97
2017-09-08T12:02:53.192Z,26.89
2017-09-08T12:05:21.077Z,26.42
2017-09-08T12:07:47.610Z,25.70
2017-09-08T12:10:14.149Z,25.37
2017-09-08T12:12:41.402Z,24.99
2017-09-08T12:15:08.242Z,24.29
2017-09-08T12:17:34.988Z,24.43
2017-09-08T12:20:02.139Z,24.23
2017-09-08T12:22:29.395Z,24.58
2017-09-08T12:24:56.056Z,23.98
2017-09-08T12:27:22.980Z,23.60
2017-09-08T12:29:49.826Z,24.29
2017-09-08T12:32:16.259Z,23.22
2017-09-08T12:34:42.795Z,22.84
2017-09-08T12:37:09.331Z,22.75
2017-09-08T12:39:36.600Z,22.58
2017-09-08T12:42:03.432Z,22.66
2017-09-08T12:44:29.866Z,22.17
2017-09-08T12:46:56.304Z,21.28
2017-09-08T12:49:22.839Z,21.12
2017-09-08T12:51:49.376Z,20.61
2017-09-08T12:54:15.918Z,20.71
2017-09-08T12:56:42.563Z,20.67
2017-09-08T12:59:09.096Z,20.60
2017-09-08T13:01:35.580Z,20.65
2017-09-08T13:04:03.765Z,20.70
2017-09-08T13:06:30.345Z,20.72
2017-09-08T13:08:56.877Z,20.53
2017-09-08T13:11:23.930Z,20.21
2017-09-08T13:13:50.466Z,19.94
2017-09-08T13:16:17.005Z,19.44
2017-09-08T13:18:43.741Z,19.11
2017-09-08T13:21:10.284Z,19.03
2017-09-08T13:23:36.821Z,18.88
2017-09-08T13:26:03.648Z,18.63
2017-09-08T13:28:30.130Z,18.95
2017-09-08T13:30:56.635Z,19.31
2017-09-08T13:33:23.377Z,19.34
2017-09-08T13:35:50.324Z,18.67
2017-09-08T13:38:16.964Z,18.95
2017-09-08T13:40:44.042Z,19.12
2017-09-08T13:43:10.655Z,19.72
2017-09-08T13:45:37.617Z,20.18
2017-09-08T13:48:04.118Z,20.80
2017-09-08T13:50:30.777Z,20.85
2017-09-08T13:52:57.417Z,20.24
2017-09-08T13:55:24.060Z,19.55
2017-09-08T13:57:50.596Z,19.05
2017-09-08T14:00:17.340Z,18.78
2017-09-08T14:02:43.975Z,18.83
2017-09-08T14:05:10.616Z,18.60
2017-09-08T14:07:37.357Z,18.17
2017-09-08T14:10:04.202Z,17.94
2017-09-08T14:12:30.945Z,17.76
2017-09-08T14:14:57.482Z,17.61
2017-09-08T14:17:24.429Z,17.55
2017-09-08T14:19:51.067Z,17.47
2017-09-08T14:22:17.504Z,17.87
2017-09-08T14:24:43.936Z,18.23
2017-09-08T14:27:10.986Z,19.23
2017-09-08T14:29:37.542Z,20.70
2017-09-08T14:32:04.265Z,21.78
2017-09-08T14:34:31.008Z,22.37
2017-09-08T14:36:57.852Z,23.38
2017-09-08T14:39:24.493Z,24.38
2017-09-08T14:41:51.132Z,24.93
2017-09-08T14:44:17.876Z,25.27
2017-09-08T14:46:44.718Z,26.66
2017-09-08T14:49:11.241Z,26.50
2017-09-08T14:51:37.682Z,26.75
2017-09-08T14:54:04.126Z,27.10
2017-09-08T14:56:30.560Z,27.20
2017-09-08T14:58:56.996Z,27.49
2017-09-08T15:01:23.432Z,27.88
2017-09-08T15:03:49.864Z,28.36
2017-09-08T15:06:16.709Z,28.70
2017-09-08T15:08:43.145Z,29.35
2017-09-08T15:11:09.581Z,29.38
2017-09-08T15:13:36.014Z,29.42
2017-09-08T15:16:02.485Z,29.17
2017-09-08T15:18:28.986Z,29.90
2017-09-08T15:20:55.420Z,30.36
2017-09-08T15:23:21.943Z,30.17
2017-09-08T15:25:48.393Z,30.46
2017-09-08T15:28:14.828Z,30.68
2017-09-08T15:30:41.247Z,31.02
2017-09-08T15:33:07.692Z,30.85
2017-09-08T15:35:34.134Z,31.12
2017-09-08T15:38:01.278Z,30.98
2017-09-08T15:40:27.719Z,30.91
2017-09-08T15:42:54.157Z,31.91
2017-09-08T15:45:20.692Z,32.17
2017-09-08T15:47:47.198Z,31.83
2017-09-08T15:50:13.665Z,32.29
2017-09-08T15:52:40.098Z,31.87
2017-09-08T15:55:07.250Z,32.84
2017-09-08T15:57:33.685Z,32.42
2017-09-08T16:00:00.120Z,32.30
2017-09-08T16:02:26.543Z,32.42
2017-09-08T16:04:52.995Z,33.06
2017-09-08T16:07:19.425Z,32.97
2017-09-08T16:09:45.860Z,33.50
2017-09-08T16:12:13.114Z,33.88
2017-09-08T16:14:39.550Z,33.63
2017-09-08T16:17:05.985Z,33.78
2017-09-08T16:19:32.418Z,33.72
2017-09-08T16:21:58.854Z,33.65
2017-09-08T16:24:25.288Z,34.23
2017-09-08T16:26:51.723Z,34.33
2017-09-08T16:29:18.874Z,34.58
2017-09-08T16:31:45.309Z,34.58
2017-09-08T16:34:11.745Z,35.42
2017-09-08T16:36:38.181Z,35.10
2017-09-08T16:39:04.718Z,35.17
2017-09-08T16:41:31.153Z,35.33
2017-09-08T16:43:57.551Z,35.70
2017-09-08T16:46:24.739Z,36.22
2017-09-08T16:48:51.179Z,36.48
2017-09-08T16:51:17.565Z,36.91
2017-09-08T16:53:44.044Z,36.73
2017-09-08T16:56:10.478Z,37.15
2017-09-08T16:58:37.015Z,37.67
2017-09-08T17:01:03.450Z,38.29
2017-09-08T17:03:30.706Z,38.00
2017-09-08T17:05:57.141Z,38.36
2017-09-08T17:08:23.524Z,38.88
2017-09-08T17:10:50.011Z,39.49
2017-09-08T17:13:16.430Z,40.00
2017-09-08T17:15:42.881Z,40.35
2017-09-08T17:18:09.340Z,41.02
2017-09-08T17:20:36.464Z,42.33
2017-09-08T17:23:03.004Z,42.61
2017-09-08T17:25:29.420Z,42.93
2017-09-08T17:27:55.874Z,43.34
2017-09-08T17:30:22.310Z,43.43
2017-09-08T17:32:48.744Z,43.52
2017-09-08T17:35:15.177Z,43.30
2017-09-08T17:37:42.259Z,44.13
2017-09-08T17:40:08.763Z,43.88
2017-09-08T17:42:35.198Z,44.90
2017-09-08T17:45:01.634Z,45.83
2017-09-08T17:47:28.070Z,46.42
2017-09-08T17:49:54.507Z,45.84
2017-09-08T17:52:20.939Z,46.46
2017-09-08T17:54:48.090Z,45.76
2017-09-08T17:57:14.526Z,45.80
2017-09-08T17:59:40.947Z,45.71
2017-09-08T18:02:07.390Z,45.60
2017-09-08T18:04:33.829Z,46.17
2017-09-08T18:07:00.264Z,45.83
2017-09-08T18:09:26.698Z,46.17
2017-09-08T18:11:53.851Z,46.38
2017-09-08T18:14:20.287Z,46.29
2017-09-08T18:16:46.724Z,46.39
2017-09-08T18:19:13.155Z,46.50
2017-09-08T18:21:39.544Z,47.21
2017-09-08T18:24:06.025Z,47.46
2017-09-08T18:26:32.466Z,47.13
2017-09-08T18:28:59.714Z,47.05
2017-09-08T18:31:26.149Z,47.96
2017-09-08T18:33:52.585Z,47.38
2017-09-08T18:36:19.116Z,47.27
2017-09-08T18:38:45.658Z,47.30
2017-09-08T18:41:12.092Z,48.68
2017-09-08T18:43:38.530Z,47.54
2017-09-08T18:46:05.782Z,47.95
2017-09-08T18:48:32.219Z,48.97
2017-09-08T18:50:58.652Z,49.29
2017-09-08T18:53:25.086Z,49.74
2017-09-08T18:55:51.522Z,48.83
2017-09-08T18:58:17.962Z,49.32
2017-09-08T19:00:44.390Z,49.27
2017-09-08T19:03:11.649Z,49.66
2017-09-08T19:05:38.084Z,49.66
2017-09-08T19:08:04.515Z,49.78
2017-09-08T19:10:30.950Z,50.40
2017-09-08T19:12:57.385Z,50.28
2017-09-08T19:15:23.822Z,50.40
2017-09-08T19:17:50.258Z,50.64
2017-09-08T19:20:17.513Z,50.48
2017-09-08T19:22:43.945Z,50.81
2017-09-08T19:25:10.381Z,50.46
2017-09-08T19:27:36.815Z,50.83
2017-09-08T19:30:03.253Z,51.04
2017-09-08T19:32:29.691Z,51.43
2017-09-08T19:34:56.117Z,51.08
2017-09-08T19:37:23.372Z,51.24
2017-09-08T19:39:49.806Z,51.66
2017-09-08T19:42:16.242Z,51.38
2017-09-08T19:44:42.629Z,52.73
2017-09-08T19:47:09.111Z,52.37
2017-09-08T19:49:35.501Z,52.35
2017-09-08T19:52:01.982Z,52.86
2017-09-08T19:54:29.131Z,52.92
2017-09-08T19:56:55.521Z,53.45
2017-09-08T19:59:22.007Z,53.03
2017-09-08T20:01:48.439Z,54.08
2017-09-08T20:04:14.872Z,53.67
2017-09-08T20:06:41.308Z,53.42
2017-09-08T20:09:07.742Z,54.24
2017-09-08T20:11:34.983Z,54.41
2017-09-08T20:14:01.425Z,54.09
2017-09-08T20:16:27.866Z,54.54
2017-09-08T20:18:54.269Z,54.94
2017-09-08T20:21:20.735Z,54.91
2017-09-08T20:23:47.170Z,55.16
2017-09-08T20:26:13.606Z,55.29
2017-09-08T20:28:40.757Z,54.96
2017-09-08T20:31:07.189Z,55.12
2017-09-08T20:33:33.627Z,55.91
2017-09-08T20:36:00.062Z,55.55
2017-09-08T20:38:26.498Z,56.03
2017-09-08T20:40:52.932Z,56.61
2017-09-08T20:43:19.368Z,56.57
2017-09-08T20:45:46.518Z,56.40
2017-09-08T20:48:12.954Z,56.40
2017-09-08T20:50:39.368Z,56.54
2017-09-08T20:53:05.814Z,55.86
2017-09-08T20:55:32.155Z,56.61
2017-09-08T20:57:58.589Z,56.48
2017-09-08T21:00:25.025Z,57.02
2017-09-08T21:02:52.177Z,56.81
2017-09-08T21:05:18.614Z,56.48
2017-09-08T21:07:45.019Z,56.81
2017-09-08T21:10:11.494Z,57.25
2017-09-08T21:12:37.919Z,57.03
2017-09-08T21:15:04.353Z,57.47
2017-09-08T21:17:30.788Z,57.09
2017-09-08T21:19:57.940Z,57.26
2017-09-08T21:22:24.375Z,57.19
2017-09-08T21:24:50.912Z,57.59
2017-09-08T21:27:17.345Z,57.46
2017-09-08T21:29:43.891Z,58.43
2017-09-08T21:32:10.317Z,58.32
2017-09-08T21:34:36.752Z,57.54
2017-09-08T21:37:03.904Z,58.06
2017-09-08T21:39:30.339Z,58.31
2017-09-08T21:41:56.773Z,58.47
2017-09-08T21:44:23.209Z,58.58
2017-09-08T21:46:49.643Z,58.04
2017-09-08T21:49:16.078Z,58.12
2017-09-08T21:51:42.513Z,57.70
2017-09-08T21:54:09.768Z,56.87
2017-09-08T21:56:36.207Z,56.01
2017-09-08T21:59:02.637Z,55.42
2017-09-08T22:01:29.029Z,54.75
2017-09-08T22:03:55.480Z,55.61
2017-09-08T22:06:21.946Z,57.08
2017-09-08T22:08:48.378Z,56.47
2017-09-08T22:11:15.631Z,56.32
2017-09-08T22:13:42.062Z,56.14
2017-09-08T22:16:08.489Z,56.28
2017-09-08T22:18:34.938Z,57.04
2017-09-08T22:21:01.376Z,57.08
2017-09-08T22:23:27.807Z,57.28
2017-09-08T22:25:54.247Z,56.65
2017-09-08T22:28:21.496Z,57.47
2017-09-08T22:30:47.930Z,57.77
2017-09-08T22:33:14.364Z,57.22
2017-09-08T22:35:40.901Z,56.53
2017-09-08T22:38:07.337Z,55.19
2017-09-08T22:40:33.769Z,53.97
2017-09-08T22:43:00.208Z,52.77
2017-09-08T22:45:27.361Z,52.27
2017-09-08T22:47:53.793Z,51.93
2017-09-08T22:50:20.228Z,51.68
2017-09-08T22:52:46.663Z,51.73
2017-09-08T22:55:13.098Z,51.23
2017-09-08T22:57:39.488Z,51.21
2017-09-08T23:00:05.968Z,51.22
2017-09-08T23:02:33.119Z,50.55
2017-09-08T23:04:59.509Z,50.31
2017-09-08T23:07:25.989Z,50.18
2017-09-08T23:09:52.404Z,50.46
2017-09-08T23:12:18.859Z,50.99
2017-09-08T23:14:45.293Z,51.08
2017-09-08T23:17:11.733Z,50.87
2017-09-08T23:19:38.975Z,51.21
2017-09-08T23:22:05.414Z,50.82
2017-09-08T23:24:31.856Z,50.86
2017-09-08T23:26:58.289Z,51.67
2017-09-08T23:29:24.725Z,50.84
2017-09-08T23:31:51.157Z,51.27
2017-09-08T23:34:17.597Z,51.75
2017-09-08T23:36:44.745Z,50.23
2017-09-08T23:39:11.178Z,52.22
2017-09-08T23:41:37.614Z,52.47
2017-09-08T23:44:04.049Z,52.95
2017-09-08T23:46:30.483Z,53.35
2017-09-08T23:48:56.921Z,53.95
2017-09-08T23:51:23.353Z,54.47
2017-09-08T23:53:50.570Z,54.86
2017-09-08T23:56:17.044Z,55.53
2017-09-08T23:58:43.478Z,55.72
